Morton S Bouchard Jr — WSE9678 — position and weather

sailwx.info

Track history (hours):
 
Tides and Currents Weather Stations Pressure Air Temp Water Temp Dewpoint Dewpoint Depression Visibility Wind Speed Wind Dir Waves Ship Positions

Morton S Bouchard Jr

Owner: BOUCHARD TRANSPORTATION CO INC, MELVILLE, NY. More information available from US FCC via Universal Licensing System and Coast Guard Vessel Documentation Center.

Last reported at 2016-Feb-09 14:30 UTC. Time now 2016-Feb-09 15:53 UTC.
Position N 41°12' W 072°50'.

Length 33 m; draft 6.3 m.

Type: Tug. MMSI: 367006550.

Date/timePositionNaut miles runAvg speedWind from/ knotsBaromVisibWave heightAir tempDewpointWater temp
2016-Feb-09 14:30N 41°12' W 072°50'0 0.0
2016-Feb-09 13:27N 41°12' W 072°50'0 0.0
2016-Feb-09 12:33N 41°12' W 072°50'0 0.0
2016-Feb-09 11:32N 41°12' W 072°50'0 0.0
2016-Feb-09 10:33N 41°12' W 072°50'0 0.0
2016-Feb-09 04:33N 41°12' W 072°50'0 0.1
2016-Feb-09 03:33N 41°12' W 072°50'0 0.0
2016-Feb-09 02:33N 41°12' W 072°50'0 0.0
2016-Feb-09 01:33N 41°12' W 072°50'0 0.0
2016-Feb-09 00:32N 41°12' W 072°50'0 0.0
2016-Feb-08 23:33N 41°12' W 072°50'0 0.0
2016-Feb-08 22:33N 41°12' W 072°50'0 0.1
2016-Feb-08 21:08N 41°12' W 072°50'0 0.0
2016-Feb-08 20:32N 41°12' W 072°50'0 0.0
2016-Feb-08 19:32N 41°12' W 072°50'1 1.4
2016-Feb-08 18:29N 41°10' W 072°50'4 2.6
2016-Feb-08 17:03N 41°10' W 072°45'3 5.4
2016-Feb-08 16:33N 41°10' W 072°42'6 5.7
2016-Feb-08 15:33N 41°12' W 072°35'6 6.0
2016-Feb-08 14:33N 41°12' W 072°27'7 7.2
2016-Feb-08 13:33N 41°14' W 072°18'8 7.9
2016-Feb-08 12:33N 41°15' W 072°07'7 1.7
2016-Feb-08 08:33N 41°14' W 072°16'8 7.8
2016-Feb-08 07:34N 41°11' W 072°26'8 8.3
2016-Feb-08 06:34N 41°10' W 072°36'8 7.7
2016-Feb-08 05:32N 41°08' W 072°47'16 7.1
2016-Feb-08 03:19N 41°02' W 073°06'5 6.6
2016-Feb-08 02:32N 41°01' W 073°12'7 6.7
2016-Feb-08 01:33N 41°01' W 073°21'6 6.4
2016-Feb-08 00:33N 40°58' W 073°29'7 6.6
2016-Feb-07 23:27N 40°55' W 073°38'3 3.0
2016-Feb-07 22:33N 40°54' W 073°41'13 5.9
2016-Feb-07 20:19N 40°47' W 073°55'4 5.5
2016-Feb-07 19:34N 40°43' W 073°58'5 5.0
2016-Feb-07 18:34N 40°40' W 074°03'2 1.7
2016-Feb-07 17:33N 40°39' W 074°05'2 1.8
2016-Feb-07 16:34N 40°38' W 074°07'0 0.0
2016-Feb-07 15:33N 40°38' W 074°07'0 0.0
2016-Feb-07 14:34N 40°38' W 074°07'0 0.0
2016-Feb-07 13:33N 40°38' W 074°07'0 0.0
2016-Feb-07 12:33N 40°38' W 074°07'0 0.0
2016-Feb-07 11:34N 40°38' W 074°07'1 1.0
2016-Feb-07 10:33N 40°39' W 074°06'2 1.5
2016-Feb-07 09:33N 40°40' W 074°05'0 0.0
2016-Feb-07 08:33N 40°40' W 074°05'0 0.0
2016-Feb-07 07:33N 40°40' W 074°05'0 0.0
2016-Feb-07 06:33N 40°40' W 074°05'0 0.0
2016-Feb-07 05:34N 40°40' W 074°05'0 0.0
2016-Feb-07 04:33N 40°40' W 074°05'0 0.0
2016-Feb-07 03:33N 40°40' W 074°05'0 0.0
2016-Feb-07 02:33N 40°40' W 074°05'0 0.0
2016-Feb-07 01:34N 40°40' W 074°05'0 0.0
2016-Feb-07 00:34N 40°40' W 074°05'0 0.0
2016-Feb-06 23:33N 40°40' W 074°05'0 0.0
2016-Feb-06 22:33N 40°40' W 074°05'0 0.0
2016-Feb-06 21:33N 40°40' W 074°05'0 0.0
2016-Feb-06 20:34N 40°40' W 074°05'2 2.3
2016-Feb-06 19:32N 40°39' W 074°07'2 1.7
2016-Feb-06 18:34N 40°39' W 074°05'2 1.8
2016-Feb-06 17:33N 40°39' W 074°03'0 0.1
2016-Feb-06 16:34N 40°39' W 074°03'0 0.0
2016-Feb-06 15:33N 40°39' W 074°03'0 0.0
2016-Feb-06 14:34N 40°39' W 074°03'0 0.1
2016-Feb-06 13:33N 40°39' W 074°03'0 0.1
2016-Feb-06 12:34N 40°39' W 074°03'4 4.2
2016-Feb-06 11:33N 40°39' W 074°08'1 1.1
2016-Feb-06 10:33N 40°38' W 074°09'2 1.8
2016-Feb-06 09:33N 40°39' W 074°07'0 0.0
2016-Feb-06 08:33N 40°39' W 074°07'0 0.0
2016-Feb-06 07:34N 40°39' W 074°07'0 0.0
2016-Feb-06 06:33N 40°39' W 074°07'0 0.0
2016-Feb-06 05:34N 40°39' W 074°07'0 0.0
2016-Feb-06 04:33N 40°39' W 074°07'0 0.0
2016-Feb-06 03:33N 40°39' W 074°07'0 0.0
2016-Feb-06 02:33N 40°39' W 074°07'0 0.0
2016-Feb-06 01:34N 40°39' W 074°07'1 0.6
2016-Feb-06 00:34N 40°39' W 074°07'1 0.2
2016-Feb-05 21:27N 40°39' W 074°07'0 0.0
2016-Feb-05 20:33N 40°39' W 074°07'0 0.0
2016-Feb-05 19:33N 40°39' W 074°07'1 1.3
2016-Feb-05 18:33N 40°39' W 074°05'0 0.0
2016-Feb-05 17:33N 40°39' W 074°05'0 0.0
2016-Feb-05 16:33N 40°39' W 074°05'0 0.0
2016-Feb-05 15:33N 40°39' W 074°05'1 1.0
2016-Feb-05 14:14N 40°39' W 074°07'0 0.0
2016-Feb-05 13:33N 40°39' W 074°07'0 0.0
2016-Feb-05 12:33N 40°39' W 074°07'2 1.8
2016-Feb-05 11:33N 40°38' W 074°09'0 0.4
2016-Feb-05 10:33N 40°38' W 074°09'5 4.6
2016-Feb-05 09:33N 40°39' W 074°03'0 0.1
2016-Feb-05 08:33N 40°39' W 074°03'0 0.0
2016-Feb-05 07:33N 40°39' W 074°03'0 0.0
2016-Feb-05 06:33N 40°39' W 074°03'0 0.0
2016-Feb-05 05:33N 40°39' W 074°03'0 0.0
2016-Feb-05 04:33N 40°39' W 074°03'0 0.0
2016-Feb-05 03:33N 40°39' W 074°03'0 0.0
2016-Feb-05 02:33N 40°39' W 074°03'0 0.0
2016-Feb-05 01:34N 40°39' W 074°03'0 0.0
2016-Feb-05 00:33N 40°39' W 074°03'0 0.0
2016-Feb-04 23:33N 40°39' W 074°03'0 0.1
2016-Feb-04 22:33N 40°39' W 074°03'0 0.0
2016-Feb-04 21:33N 40°39' W 074°03'0 0.1
2016-Feb-04 20:33N 40°39' W 074°03'0 0.1
2016-Feb-04 19:33N 40°39' W 074°03'0 0.1
2016-Feb-04 18:33N 40°39' W 074°03'0 0.0
2016-Feb-04 17:33N 40°39' W 074°03'0 0.0
2016-Feb-04 16:33N 40°39' W 074°03'0 0.0
2016-Feb-04 15:33N 40°39' W 074°03'0 0.0
2016-Feb-04 14:33N 40°39' W 074°03'0 0.0
2016-Feb-04 13:33N 40°39' W 074°03'0 0.0
2016-Feb-04 12:33N 40°39' W 074°03'0 0.0
2016-Feb-04 11:33N 40°39' W 074°03'0 0.2
2016-Feb-04 10:33N 40°39' W 074°03'0 0.0
2016-Feb-04 09:33N 40°39' W 074°03'0 0.0
2016-Feb-04 08:33N 40°39' W 074°03'0 0.0
2016-Feb-04 07:33N 40°39' W 074°03'0 0.1
2016-Feb-04 06:33N 40°39' W 074°03'0 0.1
2016-Feb-04 05:33N 40°39' W 074°03'0 0.0
2016-Feb-04 04:33N 40°39' W 074°03'0 0.0
2016-Feb-04 03:33N 40°39' W 074°03'0 0.0
2016-Feb-04 02:33N 40°39' W 074°03'0 0.2
2016-Feb-04 01:33N 40°39' W 074°03'0 0.0
2016-Feb-04 00:33N 40°39' W 074°03'0 0.0
2016-Feb-03 23:33N 40°39' W 074°03'0 0.1
2016-Feb-03 22:33N 40°39' W 074°03'0 0.0
2016-Feb-03 21:33N 40°39' W 074°03'0 0.0
2016-Feb-03 20:33N 40°39' W 074°03'0 0.0
2016-Feb-03 19:33N 40°39' W 074°03'0 0.0
2016-Feb-03 18:33N 40°39' W 074°03'0 0.1
2016-Feb-03 17:33N 40°39' W 074°03'0 0.2
2016-Feb-03 16:33N 40°39' W 074°03'0 0.1
2016-Feb-03 15:33N 40°39' W 074°03'0 0.0
2016-Feb-03 14:33N 40°39' W 074°03'0 0.1
2016-Feb-03 13:33N 40°39' W 074°03'0 0.0
2016-Feb-03 12:33N 40°39' W 074°03'0 0.1
2016-Feb-03 11:34N 40°39' W 074°03'0 0.1
2016-Feb-03 10:33N 40°39' W 074°03'0 0.1
2016-Feb-03 09:33N 40°39' W 074°03'0 0.0
2016-Feb-03 08:34N 40°39' W 074°03'0 0.0
2016-Feb-03 07:33N 40°39' W 074°03'0 0.1
2016-Feb-03 06:33N 40°39' W 074°03'4 4.2
2016-Feb-03 05:33N 40°43' W 074°02'5 4.2
2016-Feb-03 04:18N 40°48' W 073°59'0 0.0
2016-Feb-03 02:31N 40°48' W 073°59'0 0.0
2016-Feb-02 23:33N 40°48' W 073°59'0 0.1
2016-Feb-02 22:33N 40°48' W 073°59'0 0.0
2016-Feb-02 21:33N 40°48' W 073°59'0 0.0
2016-Feb-02 20:33N 40°48' W 073°59'0 0.0
2016-Feb-02 13:23N 40°48' W 073°59'0 0.0
2016-Feb-02 12:25N 40°48' W 073°59'0 0.1
2016-Feb-02 11:31N 40°48' W 073°59'0 0.2
2016-Feb-02 10:33N 40°48' W 073°59'0 0.0
2016-Feb-02 09:33N 40°48' W 073°59'0 0.0
2016-Feb-02 08:33N 40°48' W 073°59'0 0.0
2016-Feb-02 07:33N 40°48' W 073°59'0 0.1
2016-Feb-02 06:33N 40°48' W 073°59'0 0.1
2016-Feb-02 04:25N 40°48' W 073°59'0 0.0
2016-Feb-02 03:05N 40°48' W 073°59'0 0.2
2016-Feb-02 02:27N 40°48' W 073°59'0 0.0
2016-Feb-02 01:33N 40°48' W 073°59'0 0.0
2016-Feb-01 23:33N 40°48' W 073°59'0 0.0
2016-Feb-01 22:33N 40°48' W 073°59'0 0.0
2016-Feb-01 21:11N 40°48' W 073°59'0 0.1
2016-Feb-01 20:33N 40°48' W 073°59'0 0.0
2016-Feb-01 19:33N 40°48' W 073°59'0 0.0
2016-Feb-01 18:33N 40°48' W 073°59'0 0.1
2016-Feb-01 17:21N 40°48' W 073°59'6 6.9
2016-Feb-01 16:33N 40°43' W 074°01'3 3.0
2016-Feb-01 15:34N 40°40' W 074°02'0 0.0
2016-Feb-01 14:33N 40°40' W 074°02'0 0.0
2016-Feb-01 13:33N 40°40' W 074°02'0 0.0
2016-Feb-01 12:34N 40°40' W 074°02'0 0.0
2016-Feb-01 11:33N 40°40' W 074°02'0 0.0
2016-Feb-01 10:33N 40°40' W 074°02'0 0.2
2016-Feb-01 09:33N 40°40' W 074°02'0 0.1
2016-Feb-01 08:33N 40°40' W 074°02'0 0.0
2016-Feb-01 07:33N 40°40' W 074°02'0 0.0
2016-Feb-01 06:33N 40°40' W 074°02'0 0.0
2016-Feb-01 05:33N 40°40' W 074°02'0 0.1
2016-Feb-01 04:33N 40°40' W 074°02'0 0.1
2016-Feb-01 03:33N 40°40' W 074°02'0 0.0
2016-Feb-01 02:33N 40°40' W 074°02'0 0.0
2016-Feb-01 01:33N 40°40' W 074°02'0 0.0
2016-Feb-01 00:33N 40°40' W 074°02'1 0.7
2016-Jan-31 23:34N 40°39' W 074°03'3 3.3
2016-Jan-31 22:33N 40°39' W 074°07'0 0.0
2016-Jan-31 21:33N 40°39' W 074°07'0 0.0
2016-Jan-31 20:33N 40°39' W 074°07'0 0.0
2016-Jan-31 19:33N 40°39' W 074°07'0 0.0
2016-Jan-31 18:33N 40°39' W 074°07'1 0.6
2016-Jan-31 17:33N 40°39' W 074°06'1 0.6
2016-Jan-31 16:33N 40°39' W 074°07'0 0.0
2016-Jan-31 15:33N 40°39' W 074°07'0 0.0
2016-Jan-31 14:33N 40°39' W 074°07'4 4.0
2016-Jan-31 13:33N 40°40' W 074°02'0 0.0
2016-Jan-31 12:33N 40°40' W 074°02'0 0.0
2016-Jan-31 11:33N 40°40' W 074°02'0 0.0
2016-Jan-31 10:33N 40°40' W 074°02'0 0.0
2016-Jan-31 09:33N 40°40' W 074°02'0 0.1
2016-Jan-31 08:33N 40°40' W 074°02'0 0.1
2016-Jan-31 07:33N 40°40' W 074°02'0 0.0
2016-Jan-31 06:33N 40°40' W 074°02'0 0.0
2016-Jan-31 05:33N 40°40' W 074°02'0 0.0
2016-Jan-31 04:33N 40°40' W 074°02'0 0.0
2016-Jan-31 03:33N 40°40' W 074°02'0 0.0
2016-Jan-31 02:34N 40°40' W 074°02'0 0.1
2016-Jan-31 01:33N 40°40' W 074°02'0 0.1
2016-Jan-31 00:33N 40°40' W 074°02'0 0.0
2016-Jan-30 23:33N 40°40' W 074°02'0 0.0
2016-Jan-30 22:33N 40°40' W 074°02'0 0.0
2016-Jan-30 21:33N 40°40' W 074°02'0 0.2
2016-Jan-30 20:33N 40°40' W 074°02'0 0.1
2016-Jan-30 19:33N 40°40' W 074°02'0 0.0
2016-Jan-30 18:33N 40°40' W 074°02'0 0.0
2016-Jan-30 17:33N 40°40' W 074°02'0 0.0
2016-Jan-30 16:33N 40°40' W 074°02'0 0.0
2016-Jan-30 15:33N 40°40' W 074°02'0 0.1
2016-Jan-30 14:33N 40°40' W 074°02'  
Track history (hours):
 
Tides and Currents Weather Stations Pressure Air Temp Water Temp Dewpoint Dewpoint Depression Visibility Wind Speed Wind Dir Waves Ship Positions

Morton S Bouchard Jr

Owner: BOUCHARD TRANSPORTATION CO INC, MELVILLE, NY. More information available from US FCC via Universal Licensing System and Coast Guard Vessel Documentation Center.

Last reported at 2016-Feb-09 14:30 UTC. Time now 2016-Feb-09 15:53 UTC.
Position N 41°12' W 072°50'.

Length 33 m; draft 6.3 m.

Type: Tug. MMSI: 367006550.

Date/timePositionNaut miles runAvg speedWind from/ knotsBaromVisibWave heightAir tempDewpointWater temp
2016-Feb-09 14:30N 41°12' W 072°50'0 0.0
2016-Feb-09 13:27N 41°12' W 072°50'0 0.0
2016-Feb-09 12:33N 41°12' W 072°50'0 0.0
2016-Feb-09 11:32N 41°12' W 072°50'0 0.0
2016-Feb-09 10:33N 41°12' W 072°50'0 0.0
2016-Feb-09 04:33N 41°12' W 072°50'0 0.1
2016-Feb-09 03:33N 41°12' W 072°50'0 0.0
2016-Feb-09 02:33N 41°12' W 072°50'0 0.0
2016-Feb-09 01:33N 41°12' W 072°50'0 0.0
2016-Feb-09 00:32N 41°12' W 072°50'0 0.0
2016-Feb-08 23:33N 41°12' W 072°50'0 0.0
2016-Feb-08 22:33N 41°12' W 072°50'0 0.1
2016-Feb-08 21:08N 41°12' W 072°50'0 0.0
2016-Feb-08 20:32N 41°12' W 072°50'0 0.0
2016-Feb-08 19:32N 41°12' W 072°50'1 1.4
2016-Feb-08 18:29N 41°10' W 072°50'4 2.6
2016-Feb-08 17:03N 41°10' W 072°45'3 5.4
2016-Feb-08 16:33N 41°10' W 072°42'6 5.7
2016-Feb-08 15:33N 41°12' W 072°35'6 6.0
2016-Feb-08 14:33N 41°12' W 072°27'7 7.2
2016-Feb-08 13:33N 41°14' W 072°18'8 7.9
2016-Feb-08 12:33N 41°15' W 072°07'7 1.7
2016-Feb-08 08:33N 41°14' W 072°16'8 7.8
2016-Feb-08 07:34N 41°11' W 072°26'8 8.3
2016-Feb-08 06:34N 41°10' W 072°36'8 7.7
2016-Feb-08 05:32N 41°08' W 072°47'16 7.1
2016-Feb-08 03:19N 41°02' W 073°06'5 6.6
2016-Feb-08 02:32N 41°01' W 073°12'7 6.7
2016-Feb-08 01:33N 41°01' W 073°21'6 6.4
2016-Feb-08 00:33N 40°58' W 073°29'7 6.6
2016-Feb-07 23:27N 40°55' W 073°38'3 3.0
2016-Feb-07 22:33N 40°54' W 073°41'13 5.9
2016-Feb-07 20:19N 40°47' W 073°55'4 5.5
2016-Feb-07 19:34N 40°43' W 073°58'5 5.0
2016-Feb-07 18:34N 40°40' W 074°03'2 1.7
2016-Feb-07 17:33N 40°39' W 074°05'2 1.8
2016-Feb-07 16:34N 40°38' W 074°07'0 0.0
2016-Feb-07 15:33N 40°38' W 074°07'0 0.0
2016-Feb-07 14:34N 40°38' W 074°07'0 0.0
2016-Feb-07 13:33N 40°38' W 074°07'0 0.0
2016-Feb-07 12:33N 40°38' W 074°07'0 0.0
2016-Feb-07 11:34N 40°38' W 074°07'1 1.0
2016-Feb-07 10:33N 40°39' W 074°06'2 1.5
2016-Feb-07 09:33N 40°40' W 074°05'0 0.0
2016-Feb-07 08:33N 40°40' W 074°05'0 0.0
2016-Feb-07 07:33N 40°40' W 074°05'0 0.0
2016-Feb-07 06:33N 40°40' W 074°05'0 0.0
2016-Feb-07 05:34N 40°40' W 074°05'0 0.0
2016-Feb-07 04:33N 40°40' W 074°05'0 0.0
2016-Feb-07 03:33N 40°40' W 074°05'0 0.0
2016-Feb-07 02:33N 40°40' W 074°05'0 0.0
2016-Feb-07 01:34N 40°40' W 074°05'0 0.0
2016-Feb-07 00:34N 40°40' W 074°05'0 0.0
2016-Feb-06 23:33N 40°40' W 074°05'0 0.0
2016-Feb-06 22:33N 40°40' W 074°05'0 0.0
2016-Feb-06 21:33N 40°40' W 074°05'0 0.0
2016-Feb-06 20:34N 40°40' W 074°05'2 2.3
2016-Feb-06 19:32N 40°39' W 074°07'2 1.7
2016-Feb-06 18:34N 40°39' W 074°05'2 1.8
2016-Feb-06 17:33N 40°39' W 074°03'0 0.1
2016-Feb-06 16:34N 40°39' W 074°03'0 0.0
2016-Feb-06 15:33N 40°39' W 074°03'0 0.0
2016-Feb-06 14:34N 40°39' W 074°03'0 0.1
2016-Feb-06 13:33N 40°39' W 074°03'0 0.1
2016-Feb-06 12:34N 40°39' W 074°03'4 4.2
2016-Feb-06 11:33N 40°39' W 074°08'1 1.1
2016-Feb-06 10:33N 40°38' W 074°09'2 1.8
2016-Feb-06 09:33N 40°39' W 074°07'0 0.0
2016-Feb-06 08:33N 40°39' W 074°07'0 0.0
2016-Feb-06 07:34N 40°39' W 074°07'0 0.0
2016-Feb-06 06:33N 40°39' W 074°07'0 0.0
2016-Feb-06 05:34N 40°39' W 074°07'0 0.0
2016-Feb-06 04:33N 40°39' W 074°07'0 0.0
2016-Feb-06 03:33N 40°39' W 074°07'0 0.0
2016-Feb-06 02:33N 40°39' W 074°07'0 0.0
2016-Feb-06 01:34N 40°39' W 074°07'1 0.6
2016-Feb-06 00:34N 40°39' W 074°07'1 0.2
2016-Feb-05 21:27N 40°39' W 074°07'0 0.0
2016-Feb-05 20:33N 40°39' W 074°07'0 0.0
2016-Feb-05 19:33N 40°39' W 074°07'1 1.3
2016-Feb-05 18:33N 40°39' W 074°05'0 0.0
2016-Feb-05 17:33N 40°39' W 074°05'0 0.0
2016-Feb-05 16:33N 40°39' W 074°05'0 0.0
2016-Feb-05 15:33N 40°39' W 074°05'1 1.0
2016-Feb-05 14:14N 40°39' W 074°07'0 0.0
2016-Feb-05 13:33N 40°39' W 074°07'0 0.0
2016-Feb-05 12:33N 40°39' W 074°07'2 1.8
2016-Feb-05 11:33N 40°38' W 074°09'0 0.4
2016-Feb-05 10:33N 40°38' W 074°09'5 4.6
2016-Feb-05 09:33N 40°39' W 074°03'0 0.1
2016-Feb-05 08:33N 40°39' W 074°03'0 0.0
2016-Feb-05 07:33N 40°39' W 074°03'0 0.0
2016-Feb-05 06:33N 40°39' W 074°03'0 0.0
2016-Feb-05 05:33N 40°39' W 074°03'0 0.0
2016-Feb-05 04:33N 40°39' W 074°03'0 0.0
2016-Feb-05 03:33N 40°39' W 074°03'0 0.0
2016-Feb-05 02:33N 40°39' W 074°03'0 0.0
2016-Feb-05 01:34N 40°39' W 074°03'0 0.0
2016-Feb-05 00:33N 40°39' W 074°03'0 0.0
2016-Feb-04 23:33N 40°39' W 074°03'0 0.1
2016-Feb-04 22:33N 40°39' W 074°03'0 0.0
2016-Feb-04 21:33N 40°39' W 074°03'0 0.1
2016-Feb-04 20:33N 40°39' W 074°03'0 0.1
2016-Feb-04 19:33N 40°39' W 074°03'0 0.1
2016-Feb-04 18:33N 40°39' W 074°03'0 0.0
2016-Feb-04 17:33N 40°39' W 074°03'0 0.0
2016-Feb-04 16:33N 40°39' W 074°03'0 0.0
2016-Feb-04 15:33N 40°39' W 074°03'0 0.0
2016-Feb-04 14:33N 40°39' W 074°03'0 0.0
2016-Feb-04 13:33N 40°39' W 074°03'0 0.0
2016-Feb-04 12:33N 40°39' W 074°03'0 0.0
2016-Feb-04 11:33N 40°39' W 074°03'0 0.2
2016-Feb-04 10:33N 40°39' W 074°03'0 0.0
2016-Feb-04 09:33N 40°39' W 074°03'0 0.0
2016-Feb-04 08:33N 40°39' W 074°03'0 0.0
2016-Feb-04 07:33N 40°39' W 074°03'0 0.1
2016-Feb-04 06:33N 40°39' W 074°03'0 0.1
2016-Feb-04 05:33N 40°39' W 074°03'0 0.0
2016-Feb-04 04:33N 40°39' W 074°03'0 0.0
2016-Feb-04 03:33N 40°39' W 074°03'0 0.0
2016-Feb-04 02:33N 40°39' W 074°03'0 0.2
2016-Feb-04 01:33N 40°39' W 074°03'0 0.0
2016-Feb-04 00:33N 40°39' W 074°03'0 0.0
2016-Feb-03 23:33N 40°39' W 074°03'0 0.1
2016-Feb-03 22:33N 40°39' W 074°03'0 0.0
2016-Feb-03 21:33N 40°39' W 074°03'0 0.0
2016-Feb-03 20:33N 40°39' W 074°03'0 0.0
2016-Feb-03 19:33N 40°39' W 074°03'0 0.0
2016-Feb-03 18:33N 40°39' W 074°03'0 0.1
2016-Feb-03 17:33N 40°39' W 074°03'0 0.2
2016-Feb-03 16:33N 40°39' W 074°03'0 0.1
2016-Feb-03 15:33N 40°39' W 074°03'0 0.0
2016-Feb-03 14:33N 40°39' W 074°03'0 0.1
2016-Feb-03 13:33N 40°39' W 074°03'0 0.0
2016-Feb-03 12:33N 40°39' W 074°03'0 0.1
2016-Feb-03 11:34N 40°39' W 074°03'0 0.1
2016-Feb-03 10:33N 40°39' W 074°03'0 0.1
2016-Feb-03 09:33N 40°39' W 074°03'0 0.0
2016-Feb-03 08:34N 40°39' W 074°03'0 0.0
2016-Feb-03 07:33N 40°39' W 074°03'0 0.1
2016-Feb-03 06:33N 40°39' W 074°03'4 4.2
2016-Feb-03 05:33N 40°43' W 074°02'5 4.2
2016-Feb-03 04:18N 40°48' W 073°59'0 0.0
2016-Feb-03 02:31N 40°48' W 073°59'0 0.0
2016-Feb-02 23:33N 40°48' W 073°59'0 0.1
2016-Feb-02 22:33N 40°48' W 073°59'0 0.0
2016-Feb-02 21:33N 40°48' W 073°59'0 0.0
2016-Feb-02 20:33N 40°48' W 073°59'0 0.0
2016-Feb-02 13:23N 40°48' W 073°59'0 0.0
2016-Feb-02 12:25N 40°48' W 073°59'0 0.1
2016-Feb-02 11:31N 40°48' W 073°59'0 0.2
2016-Feb-02 10:33N 40°48' W 073°59'0 0.0
2016-Feb-02 09:33N 40°48' W 073°59'0 0.0
2016-Feb-02 08:33N 40°48' W 073°59'0 0.0
2016-Feb-02 07:33N 40°48' W 073°59'0 0.1
2016-Feb-02 06:33N 40°48' W 073°59'0 0.1
2016-Feb-02 04:25N 40°48' W 073°59'0 0.0
2016-Feb-02 03:05N 40°48' W 073°59'0 0.2
2016-Feb-02 02:27N 40°48' W 073°59'0 0.0
2016-Feb-02 01:33N 40°48' W 073°59'0 0.0
2016-Feb-01 23:33N 40°48' W 073°59'0 0.0
2016-Feb-01 22:33N 40°48' W 073°59'0 0.0
2016-Feb-01 21:11N 40°48' W 073°59'0 0.1
2016-Feb-01 20:33N 40°48' W 073°59'0 0.0
2016-Feb-01 19:33N 40°48' W 073°59'0 0.0
2016-Feb-01 18:33N 40°48' W 073°59'0 0.1
2016-Feb-01 17:21N 40°48' W 073°59'6 6.9
2016-Feb-01 16:33N 40°43' W 074°01'3 3.0
2016-Feb-01 15:34N 40°40' W 074°02'0 0.0
2016-Feb-01 14:33N 40°40' W 074°02'0 0.0
2016-Feb-01 13:33N 40°40' W 074°02'0 0.0
2016-Feb-01 12:34N 40°40' W 074°02'0 0.0
2016-Feb-01 11:33N 40°40' W 074°02'0 0.0
2016-Feb-01 10:33N 40°40' W 074°02'0 0.2
2016-Feb-01 09:33N 40°40' W 074°02'0 0.1
2016-Feb-01 08:33N 40°40' W 074°02'0 0.0
2016-Feb-01 07:33N 40°40' W 074°02'0 0.0
2016-Feb-01 06:33N 40°40' W 074°02'0 0.0
2016-Feb-01 05:33N 40°40' W 074°02'0 0.1
2016-Feb-01 04:33N 40°40' W 074°02'0 0.1
2016-Feb-01 03:33N 40°40' W 074°02'0 0.0
2016-Feb-01 02:33N 40°40' W 074°02'0 0.0
2016-Feb-01 01:33N 40°40' W 074°02'0 0.0
2016-Feb-01 00:33N 40°40' W 074°02'1 0.7
2016-Jan-31 23:34N 40°39' W 074°03'3 3.3
2016-Jan-31 22:33N 40°39' W 074°07'0 0.0
2016-Jan-31 21:33N 40°39' W 074°07'0 0.0
2016-Jan-31 20:33N 40°39' W 074°07'0 0.0
2016-Jan-31 19:33N 40°39' W 074°07'0 0.0
2016-Jan-31 18:33N 40°39' W 074°07'1 0.6
2016-Jan-31 17:33N 40°39' W 074°06'1 0.6
2016-Jan-31 16:33N 40°39' W 074°07'0 0.0
2016-Jan-31 15:33N 40°39' W 074°07'0 0.0
2016-Jan-31 14:33N 40°39' W 074°07'4 4.0
2016-Jan-31 13:33N 40°40' W 074°02'0 0.0
2016-Jan-31 12:33N 40°40' W 074°02'0 0.0
2016-Jan-31 11:33N 40°40' W 074°02'0 0.0
2016-Jan-31 10:33N 40°40' W 074°02'0 0.0
2016-Jan-31 09:33N 40°40' W 074°02'0 0.1
2016-Jan-31 08:33N 40°40' W 074°02'0 0.1
2016-Jan-31 07:33N 40°40' W 074°02'0 0.0
2016-Jan-31 06:33N 40°40' W 074°02'0 0.0
2016-Jan-31 05:33N 40°40' W 074°02'0 0.0
2016-Jan-31 04:33N 40°40' W 074°02'0 0.0
2016-Jan-31 03:33N 40°40' W 074°02'0 0.0
2016-Jan-31 02:34N 40°40' W 074°02'0 0.1
2016-Jan-31 01:33N 40°40' W 074°02'0 0.1
2016-Jan-31 00:33N 40°40' W 074°02'0 0.0
2016-Jan-30 23:33N 40°40' W 074°02'0 0.0
2016-Jan-30 22:33N 40°40' W 074°02'0 0.0
2016-Jan-30 21:33N 40°40' W 074°02'0 0.2
2016-Jan-30 20:33N 40°40' W 074°02'0 0.1
2016-Jan-30 19:33N 40°40' W 074°02'0 0.0
2016-Jan-30 18:33N 40°40' W 074°02'0 0.0
2016-Jan-30 17:33N 40°40' W 074°02'0 0.0
2016-Jan-30 16:33N 40°40' W 074°02'0 0.0
2016-Jan-30 15:33N 40°40' W 074°02'0 0.1
2016-Jan-30 14:33N 40°40' W 074°02'  

Dump ship's entire track history